Time;durP1;ratioP1;P1;durP2;ratioP2;P2;SDS_P1;SDS_P2;PMS_P1;PMS_P2;Temp;Humidity;BMP_temperature;BMP_pressure;BME280_temperature;BME280_humidity;BME280_pressure;Samples;Min_cycle;Max_cycle;Signal;HPM_P1;HPM_P2
2022/10/15 00:00:12;;;;;;;6.15;2.22;;;;;;;18.34;65.92;96144.44;10564228;28;20285;-28
2022/10/15 00:05:13;;;;;;;1.80;1.30;;;;;;;18.34;65.52;96145.25;10561651;28;20032;-29
2022/10/15 00:10:14;;;;;;;3.72;1.67;;;;;;;18.33;65.50;96140.22;10556847;28;20114;-30
2022/10/15 00:15:14;;;;;;;1.73;1.05;;;;;;;18.34;65.52;96139.38;10557501;28;20023;-29
2022/10/15 00:20:15;;;;;;;1.95;1.38;;;;;;;18.34;65.32;96142.72;10560291;28;20110;-29
2022/10/15 00:25:15;;;;;;;3.17;1.50;;;;;;;18.34;65.29;96135.13;10559890;28;20027;-29
2022/10/15 00:30:15;;;;;;;2.38;1.40;;;;;;;18.34;65.13;96136.81;10564554;28;20115;-29
2022/10/15 00:35:17;;;;;;;1.80;1.40;;;;;;;18.35;65.63;96143.56;10560375;28;20437;-29
2022/10/15 00:40:18;;;;;;;2.20;1.50;;;;;;;18.35;65.72;96143.56;10540113;28;20063;-29
2022/10/15 00:45:19;;;;;;;2.20;1.30;;;;;;;18.32;67.18;96131.75;10541881;28;20032;-29
2022/10/15 00:50:26;;;;;;;3.60;1.45;;;;;;;18.35;67.12;96141.88;10558882;28;20436;-28
2022/10/15 00:55:32;;;;;;;1.23;1.10;;;;;;;18.33;66.02;96140.22;10562077;28;20031;-29
2022/10/15 01:00:33;;;;;;;2.13;1.23;;;;;;;18.35;65.99;96146.94;10563282;28;20467;-29
2022/10/15 01:05:36;;;;;;;1.30;1.15;;;;;;;18.35;65.70;96161.31;10556991;28;20089;-30
2022/10/15 01:10:54;;;;;;;2.05;1.38;;;;;;;18.34;65.73;96162.16;10540350;28;20035;-29
2022/10/15 01:16:03;;;;;;;2.80;1.40;;;;;;;18.35;65.85;96153.72;10538901;28;20043;-29
2022/10/15 01:21:03;;;;;;;1.95;1.30;;;;;;;18.34;65.42;96154.56;10557521;28;20034;-29
2022/10/15 01:26:46;;;;;;;2.10;1.20;;;;;;;18.34;65.96;96149.50;10564258;28;20229;-29
2022/10/15 01:31:49;;;;;;;1.98;1.33;;;;;;;18.33;65.47;96163.03;10541958;28;20284;-29
2022/10/15 01:37:07;;;;;;;3.00;1.25;;;;;;;18.35;65.04;96166.38;10564612;28;20035;-29
2022/10/15 01:42:28;;;;;;;1.50;1.23;;;;;;;18.34;66.70;96146.97;10564703;28;20037;-28
2022/10/15 01:47:34;;;;;;;1.65;1.30;;;;;;;18.32;67.60;96152.03;10544408;28;20493;-30
2022/10/15 01:52:39;;;;;;;2.47;1.60;;;;;;;18.32;67.36;96141.06;10569893;28;20020;-29
2022/10/15 01:57:42;;;;;;;2.90;1.25;;;;;;;18.34;66.15;96127.50;10547001;28;20023;-29
2022/10/15 02:02:43;;;;;;;2.28;1.20;;;;;;;18.31;66.05;96135.16;10560234;28;20066;-29
2022/10/15 02:08:09;;;;;;;1.88;1.33;;;;;;;18.33;65.79;96140.22;10543696;28;20035;-29
2022/10/15 02:13:37;;;;;;;1.92;1.40;;;;;;;18.33;66.08;96138.50;10544733;28;20031;-30
2022/10/15 02:18:46;;;;;;;1.40;1.10;;;;;;;18.34;66.43;96136.81;10546966;28;20034;-29
2022/10/15 02:23:50;;;;;;;4.70;3.08;;;;;;;18.28;66.44;96117.44;10553510;28;20024;-29
2022/10/15 02:28:54;;;;;;;1.67;1.10;;;;;;;18.33;66.52;96122.47;10561757;28;20032;-29
2022/10/15 02:33:57;;;;;;;1.08;0.98;;;;;;;18.28;66.58;96106.44;10564838;28;20405;-29
2022/10/15 02:39:00;;;;;;;2.55;1.08;;;;;;;18.34;66.56;96136.81;10552026;28;20020;-28
2022/10/15 02:44:02;;;;;;;1.65;1.35;;;;;;;18.32;67.68;96136.00;10565215;28;20528;-29
2022/10/15 02:49:03;;;;;;;2.10;1.25;;;;;;;18.37;67.64;96121.59;10561803;28;20055;-29
2022/10/15 02:54:05;;;;;;;2.45;1.60;;;;;;;18.32;66.76;96125.88;10548387;28;20058;-30
2022/10/15 02:59:06;;;;;;;1.25;1.00;;;;;;;18.44;65.28;96146.03;10544182;28;20027;-29
2022/10/15 03:04:07;;;;;;;2.92;1.00;;;;;;;18.43;65.33;96144.34;10546625;28;20027;-29
2022/10/15 03:09:08;;;;;;;2.53;1.08;;;;;;;18.35;64.84;96120.78;10563437;28;20110;-28
2022/10/15 03:14:08;;;;;;;1.35;1.13;;;;;;;18.44;64.89;96129.13;10542753;28;20039;-28
2022/10/15 03:19:09;;;;;;;1.73;1.15;;;;;;;18.44;64.73;96130.81;10543531;28;20123;-29
2022/10/15 03:24:09;;;;;;;1.25;1.15;;;;;;;18.39;64.75;96123.25;10566354;28;20032;-31
2022/10/15 03:29:10;;;;;;;1.88;0.90;;;;;;;18.44;64.69;96130.81;10558607;28;20024;-29
2022/10/15 03:34:23;;;;;;;3.05;1.35;;;;;;;18.45;64.42;96146.03;10545482;28;20114;-30
2022/10/15 03:39:24;;;;;;;3.60;0.82;;;;;;;18.45;64.74;96132.50;10549709;28;20161;-29
2022/10/15 03:44:29;;;;;;;1.10;0.90;;;;;;;18.44;65.38;96134.22;10546376;28;20036;-29
2022/10/15 03:49:41;;;;;;;1.75;1.30;;;;;;;18.41;66.60;96125.78;10543224;28;20062;-29
2022/10/15 03:54:42;;;;;;;1.15;1.00;;;;;;;18.41;66.63;96126.59;10537631;28;20034;-29
2022/10/15 03:59:43;;;;;;;1.30;0.80;;;;;;;18.43;65.90;96129.13;10542428;28;20119;-30
2022/10/15 04:04:45;;;;;;;0.80;0.80;;;;;;;18.45;65.30;96145.16;10562683;28;20028;-29
2022/10/15 04:09:46;;;;;;;4.18;0.93;;;;;;;18.39;65.33;96118.19;10535855;28;20031;-29
2022/10/15 04:14:59;;;;;;;1.38;0.95;;;;;;;18.45;64.97;96128.28;10534319;28;20421;-29
2022/10/15 04:20:00;;;;;;;3.17;1.07;;;;;;;18.46;64.90;96129.09;10560600;28;20032;-29
2022/10/15 04:25:00;;;;;;;0.95;0.77;;;;;;;18.40;64.97;96136.78;10548393;28;20299;-28
2022/10/15 04:30:02;;;;;;;1.83;1.23;;;;;;;18.43;64.99;96151.94;10542089;28;20038;-29
2022/10/15 04:35:04;;;;;;;1.35;0.98;;;;;;;18.42;64.86;96145.22;10541999;28;20024;-29
2022/10/15 04:40:21;;;;;;;2.38;1.60;;;;;;;18.44;64.62;96171.38;10529366;28;20028;-29
2022/10/15 04:45:21;;;;;;;2.17;1.00;;;;;;;18.44;65.96;96151.09;10543328;28;20036;-29
2022/10/15 04:50:22;;;;;;;0.75;0.70;;;;;;;18.33;66.71;96137.69;10538995;28;20408;-27
2022/10/15 04:55:41;;;;;;;0.93;0.82;;;;;;;18.35;67.00;96152.00;10554681;28;20039;-29
2022/10/15 05:00:41;;;;;;;1.53;0.77;;;;;;;18.43;65.96;96164.63;10556479;28;20031;-30
2022/10/15 05:05:44;;;;;;;1.23;0.80;;;;;;;18.44;65.39;96168.84;10546690;28;20065;-30
2022/10/15 05:10:45;;;;;;;2.70;1.52;;;;;;;18.41;65.55;96184.09;10555273;28;20027;-29
2022/10/15 05:15:46;;;;;;;2.55;1.15;;;;;;;18.40;65.53;96190.81;10550177;28;20073;-29
2022/10/15 05:20:46;;;;;;;2.03;0.82;;;;;;;18.38;64.76;96196.75;10547111;28;20050;-30
2022/10/15 05:25:51;;;;;;;1.90;1.45;;;;;;;18.40;65.43;96195.06;10558360;28;20070;-30
2022/10/15 05:31:01;;;;;;;1.58;0.60;;;;;;;18.40;64.55;96210.28;10547031;28;20036;-29
2022/10/15 05:36:10;;;;;;;0.93;0.80;;;;;;;18.39;64.65;96211.09;10544284;28;20417;-28
2022/10/15 05:41:10;;;;;;;0.70;0.50;;;;;;;18.40;64.29;96220.41;10549240;28;20027;-28
2022/10/15 05:46:11;;;;;;;1.45;0.93;;;;;;;18.40;64.48;96230.56;10572077;28;20038;-30
2022/10/15 05:51:12;;;;;;;1.92;0.95;;;;;;;18.38;66.81;96235.63;10549785;28;20027;-32
2022/10/15 05:56:13;;;;;;;1.73;0.85;;;;;;;18.37;66.98;96235.63;10546510;28;20122;-30
2022/10/15 06:01:14;;;;;;;1.95;0.70;;;;;;;18.40;66.36;96250.84;10562527;28;20052;-29
2022/10/15 06:06:19;;;;;;;1.25;0.80;;;;;;;18.38;65.36;96239.84;10558436;28;20027;-30
2022/10/15 06:11:20;;;;;;;3.70;0.95;;;;;;;18.36;65.64;96239.03;10571529;28;20460;-29
2022/10/15 06:16:20;;;;;;;1.33;1.00;;;;;;;18.34;65.52;96258.47;10566711;28;20098;-27
2022/10/15 06:21:20;;;;;;;2.07;0.67;;;;;;;18.37;65.35;96251.69;10567441;28;20469;-28
2022/10/15 06:26:21;;;;;;;1.05;0.93;;;;;;;18.37;64.90;96253.38;10565193;28;20273;-29
2022/10/15 06:31:22;;;;;;;1.40;1.10;;;;;;;18.36;64.67;96274.50;10563099;28;20039;-29
2022/10/15 06:36:24;;;;;;;1.97;0.67;;;;;;;18.35;64.99;96288.03;10562856;28;20450;-30
2022/10/15 06:41:25;;;;;;;1.83;0.80;;;;;;;18.35;64.67;96283.78;10567815;28;20322;-30
2022/10/15 06:46:25;;;;;;;1.13;0.67;;;;;;;18.35;64.58;96290.56;10562890;28;20586;-31
2022/10/15 06:51:25;;;;;;;1.63;1.00;;;;;;;18.38;67.06;96306.59;10568743;28;20072;-29
2022/10/15 06:56:26;;;;;;;3.60;1.00;;;;;;;18.42;67.15;96302.34;10569478;28;20278;-29
2022/10/15 07:01:27;;;;;;;2.08;1.00;;;;;;;18.44;66.48;96298.97;10553223;28;20290;-29
2022/10/15 07:06:27;;;;;;;3.88;1.40;;;;;;;18.41;65.51;96301.50;10555570;28;20052;-29
2022/10/15 07:11:28;;;;;;;1.30;0.80;;;;;;;18.39;65.19;96304.88;10562037;28;20047;-29
2022/10/15 07:16:28;;;;;;;2.00;0.98;;;;;;;18.37;64.92;96302.38;10558665;28;20293;-31
2022/10/15 07:21:29;;;;;;;1.23;0.90;;;;;;;18.38;64.29;96309.13;10560700;28;20030;-29
2022/10/15 07:26:29;;;;;;;1.50;0.80;;;;;;;18.27;65.32;96308.31;10559548;28;20281;-29
2022/10/15 07:31:31;;;;;;;3.35;0.90;;;;;;;18.31;65.09;96307.47;10564560;28;20924;-29
2022/10/15 07:36:31;;;;;;;5.07;1.33;;;;;;;18.34;65.96;96317.56;10550151;28;20051;-28
2022/10/15 07:41:32;;;;;;;2.00;1.10;;;;;;;18.38;66.62;96326.88;10536900;28;20032;-29
2022/10/15 07:46:32;;;;;;;8.05;1.80;;;;;;;18.49;66.65;96336.94;10552380;28;20031;-29
2022/10/15 07:51:32;;;;;;;6.23;1.00;;;;;;;18.46;66.71;96334.41;10553376;27;20472;-34
2022/10/15 07:56:33;;;;;;;4.07;1.23;;;;;;;18.45;65.28;96335.25;10546815;28;20304;-32
2022/10/15 08:01:33;;;;;;;2.53;1.00;;;;;;;18.39;64.86;96351.34;10555189;28;20478;-31
2022/10/15 08:06:34;;;;;;;3.63;0.90;;;;;;;18.38;64.96;96348.81;10562609;27;20335;-32
2022/10/15 08:11:34;;;;;;;6.15;1.25;;;;;;;18.30;65.21;96355.63;10556715;28;20251;-30
2022/10/15 08:16:35;;;;;;;4.07;0.90;;;;;;;18.35;64.70;96351.38;10546591;28;20028;-31
2022/10/15 08:21:35;;;;;;;3.70;1.23;;;;;;;18.35;64.98;96356.44;10540051;28;20158;-31
2022/10/15 08:26:36;;;;;;;4.83;1.50;;;;;;;18.31;65.36;96347.16;10544517;28;20028;-31
2022/10/15 08:31:37;;;;;;;38.40;2.90;;;;;;;18.39;66.00;96350.50;10551505;28;20537;-31
2022/10/15 08:36:38;;;;;;;6.90;2.13;;;;;;;18.44;66.45;96356.41;10558430;28;20030;-32
2022/10/15 08:41:52;;;;;;;5.40;2.33;;;;;;;18.45;66.28;96346.25;10546747;28;20024;-31
2022/10/15 08:47:01;;;;;;;8.48;1.63;;;;;;;18.43;65.79;96344.56;10543145;28;21924;-31
2022/10/15 08:52:33;;;;;;;13.00;1.75;;;;;;;18.41;66.85;96359.78;10557306;28;20032;-31
2022/10/15 08:57:37;;;;;;;3.83;1.35;;;;;;;18.40;64.60;96367.41;10556499;28;20031;-32
2022/10/15 09:03:09;;;;;;;4.32;1.40;;;;;;;18.39;64.83;96356.44;10546800;28;20036;-31
2022/10/15 09:08:28;;;;;;;4.15;1.20;;;;;;;18.34;65.60;96347.16;10502348;28;20135;-32
2022/10/15 09:13:40;;;;;;;6.38;1.70;;;;;;;18.34;66.12;96344.63;10557770;28;20035;-31
2022/10/15 09:18:45;;;;;;;1.52;1.05;;;;;;;18.39;64.35;96346.28;10560460;28;20125;-31
2022/10/15 09:23:45;;;;;;;7.78;2.67;;;;;;;18.43;66.32;96342.03;10556461;28;20076;-32
2022/10/15 09:29:05;;;;;;;3.20;1.77;;;;;;;18.45;66.79;96342.88;10553498;28;20511;-31
2022/10/15 09:34:27;;;;;;;5.38;1.90;;;;;;;18.46;66.92;96336.94;10558412;28;20027;-30
2022/10/15 09:39:45;;;;;;;3.70;2.10;;;;;;;18.42;65.77;96360.63;10563604;28;20028;-30
2022/10/15 09:44:46;;;;;;;4.70;1.10;;;;;;;18.41;64.71;96361.50;10562365;28;20030;-31
2022/10/15 09:49:47;;;;;;;4.47;1.35;;;;;;;18.38;64.41;96359.81;10558155;28;20118;-30
2022/10/15 09:55:08;;;;;;;1.65;0.80;;;;;;;18.40;64.47;96364.88;10566399;28;20080;-31
2022/10/15 10:00:12;;;;;;;2.38;0.95;;;;;;;18.39;64.04;96363.16;10565538;28;20032;-31
2022/10/15 10:05:25;;;;;;;1.67;1.00;;;;;;;18.39;63.99;96371.63;10569135;28;20123;-31
2022/10/15 10:10:28;;;;;;;3.40;1.60;;;;;;;18.40;65.64;96377.56;10566037;28;20477;-31
2022/10/15 10:15:33;;;;;;;2.78;1.60;;;;;;;18.47;67.00;96377.50;10564213;28;20023;-31
2022/10/15 10:20:33;;;;;;;8.30;2.10;;;;;;;18.51;66.80;96389.28;10564190;28;20028;-29
2022/10/15 10:25:39;;;;;;;6.20;1.88;;;;;;;18.48;67.04;96368.19;10572123;28;20412;-30
2022/10/15 10:30:59;;;;;;;5.60;1.90;;;;;;;18.46;66.52;96365.69;10560078;28;20055;-30
2022/10/15 10:36:00;;;;;;;13.32;1.20;;;;;;;18.45;65.44;96375.81;10558261;28;20101;-30
2022/10/15 10:41:08;;;;;;;3.92;1.40;;;;;;;18.41;65.65;96369.09;10567573;28;20077;-29
2022/10/15 10:46:13;;;;;;;5.60;1.35;;;;;;;18.43;64.35;96372.47;10560497;28;20551;-28
2022/10/15 10:51:21;;;;;;;8.77;1.20;;;;;;;18.38;63.67;96375.03;10565109;28;20039;-29
2022/10/15 10:56:33;;;;;;;5.00;1.10;;;;;;;18.41;63.36;96371.63;10562838;28;20099;-29
2022/10/15 11:01:33;;;;;;;4.80;1.13;;;;;;;18.40;64.08;96372.50;10556356;28;20020;-29
2022/10/15 11:06:37;;;;;;;6.20;3.53;;;;;;;18.46;67.36;96363.16;10561405;28;20485;-29
2022/10/15 11:11:47;;;;;;;5.50;3.88;;;;;;;18.41;67.69;96333.63;10561477;28;20085;-29
2022/10/15 11:17:20;;;;;;;8.23;3.30;;;;;;;18.49;66.54;96349.63;10561995;28;20118;-29
2022/10/15 11:22:29;;;;;;;11.50;3.20;;;;;;;18.46;65.56;96360.63;10506357;28;20039;-30
2022/10/15 11:27:52;;;;;;;2.72;1.40;;;;;;;18.44;63.81;96353.88;10559948;28;20060;-29
2022/10/15 11:33:08;;;;;;;2.92;1.75;;;;;;;18.42;63.76;96355.56;10563513;28;20599;-30
2022/10/15 11:38:44;;;;;;;4.55;1.77;;;;;;;18.42;63.97;96350.50;10561014;28;20085;-29
2022/10/15 11:43:54;;;;;;;2.75;1.60;;;;;;;18.44;63.66;96323.44;10551946;28;20040;-29
2022/10/15 11:49:12;;;;;;;14.40;3.53;;;;;;;18.42;65.78;96325.16;10538467;28;20557;-30
2022/10/15 11:54:25;;;;;;;4.90;2.50;;;;;;;18.47;64.72;96334.41;10540154;27;20866;-31
2022/10/15 11:59:52;;;;;;;11.50;4.57;;;;;;;18.51;68.19;96340.31;10531676;28;20036;-29
2022/10/15 12:04:57;;;;;;;11.38;5.47;;;;;;;18.52;68.22;96341.97;10547454;28;20035;-31
2022/10/15 12:10:08;;;;;;;8.45;3.55;;;;;;;18.51;67.47;96345.38;10553064;28;20040;-29
2022/10/15 12:15:31;;;;;;;9.85;2.95;;;;;;;18.44;65.97;96339.50;10552438;28;20489;-31
2022/10/15 12:20:32;;;;;;;5.88;2.33;;;;;;;18.45;65.79;96343.72;10552530;28;20039;-32
2022/10/15 12:25:32;;;;;;;6.45;2.80;;;;;;;18.46;64.78;96342.00;10556042;28;20161;-33
2022/10/15 12:30:36;;;;;;;13.67;3.60;;;;;;;18.45;64.57;96330.19;10551561;28;20038;-31
2022/10/15 12:35:38;;;;;;;15.43;4.00;;;;;;;18.46;65.88;96336.94;10555542;28;20028;-32
2022/10/15 12:40:39;;;;;;;10.43;3.20;;;;;;;18.38;64.74;96326.00;10557675;28;20068;-31
2022/10/15 12:45:49;;;;;;;14.80;4.15;;;;;;;18.46;64.63;96336.94;10564565;28;20020;-31
2022/10/15 12:51:09;;;;;;;9.13;4.60;;;;;;;18.51;69.01;96337.78;10562564;28;20545;-31
2022/10/15 12:56:09;;;;;;;9.82;5.45;;;;;;;18.55;69.50;96331.81;10560370;28;20083;-31
2022/10/15 13:01:14;;;;;;;9.20;3.50;;;;;;;18.55;68.59;96316.59;10559337;28;20020;-31
2022/10/15 13:06:23;;;;;;;5.00;2.88;;;;;;;18.49;67.59;96307.34;10561889;28;20044;-31
2022/10/15 13:11:28;;;;;;;8.13;3.22;;;;;;;18.42;66.97;96307.41;10558688;28;20085;-32
2022/10/15 13:16:29;;;;;;;8.23;2.88;;;;;;;18.46;66.28;96321.75;10562270;28;20042;-31
2022/10/15 13:21:50;;;;;;;5.85;3.30;;;;;;;18.44;66.94;96313.31;10565105;28;20028;-31
2022/10/15 13:26:52;;;;;;;7.10;3.80;;;;;;;18.44;65.50;96313.31;10559852;28;20032;-31
2022/10/15 13:31:56;;;;;;;6.68;2.83;;;;;;;18.44;64.71;96319.22;10566967;28;20089;-32
2022/10/15 13:36:59;;;;;;;5.38;3.05;;;;;;;18.44;64.64;96314.16;10562264;28;20031;-31
2022/10/15 13:42:14;;;;;;;5.10;2.83;;;;;;;18.45;66.19;96320.91;10563791;28;20039;-32
2022/10/15 13:47:34;;;;;;;4.70;2.90;;;;;;;18.53;68.47;96331.00;10557882;28;20503;-31
2022/10/15 13:52:39;;;;;;;6.85;3.33;;;;;;;18.54;68.63;96325.06;10567918;28;20043;-31
2022/10/15 13:57:43;;;;;;;10.07;3.13;;;;;;;18.53;67.07;96314.09;10565518;28;20027;-31
2022/10/15 14:02:44;;;;;;;4.85;3.03;;;;;;;18.49;66.61;96302.28;10560880;28;20119;-31
2022/10/15 14:07:53;;;;;;;6.35;3.17;;;;;;;18.46;66.00;96294.72;10558984;28;20028;-31
2022/10/15 14:12:54;;;;;;;6.45;3.25;;;;;;;18.54;66.85;96303.09;10553576;28;20097;-31
2022/10/15 14:17:54;;;;;;;10.17;3.10;;;;;;;18.55;66.72;96311.53;10557911;28;20028;-32
2022/10/15 14:22:54;;;;;;;4.47;3.10;;;;;;;18.49;68.85;96309.06;10547479;28;20783;-32
2022/10/15 14:27:55;;;;;;;6.53;2.83;;;;;;;18.59;68.63;96303.91;10550055;27;20580;-31
2022/10/15 14:32:56;;;;;;;4.93;2.80;;;;;;;18.62;66.52;96313.19;10552606;27;20393;-31
2022/10/15 14:38:08;;;;;;;10.73;3.42;;;;;;;18.57;66.07;96308.16;10543534;27;20371;-32
2022/10/15 14:43:17;;;;;;;14.65;3.15;;;;;;;18.54;65.72;96299.72;10542482;27;20060;-30
2022/10/15 14:48:23;;;;;;;10.38;3.13;;;;;;;18.52;65.30;96306.50;10541695;27;20089;-31
2022/10/15 14:53:27;;;;;;;11.50;3.72;;;;;;;18.52;67.40;96314.09;10548814;27;20042;-31
2022/10/15 14:58:29;;;;;;;11.70;2.38;;;;;;;18.39;64.63;96294.75;10558610;28;20158;-33
2022/10/15 15:03:46;;;;;;;8.52;3.22;;;;;;;18.57;68.20;96309.84;10540887;27;20589;-31
2022/10/15 15:08:46;;;;;;;18.73;3.30;;;;;;;18.56;68.31;96308.16;10547195;27;20490;-33
2022/10/15 15:13:48;;;;;;;7.72;3.22;;;;;;;18.57;67.70;96304.78;10550832;28;20089;-31
2022/10/15 15:18:48;;;;;;;11.52;2.60;;;;;;;18.55;67.05;96296.31;10557132;28;20031;-32
2022/10/15 15:23:51;;;;;;;5.50;2.70;;;;;;;18.52;67.13;96301.44;10562617;28;20501;-31
2022/10/15 15:28:52;;;;;;;10.25;2.97;;;;;;;18.51;67.25;96307.34;10557566;28;20112;-33
2022/10/15 15:33:52;;;;;;;10.13;3.80;;;;;;;18.49;67.13;96304.00;10564496;28;20545;-34
2022/10/15 15:38:57;;;;;;;6.53;2.70;;;;;;;18.49;65.16;96316.66;10560977;28;20403;-32
2022/10/15 15:43:57;;;;;;;9.15;2.60;;;;;;;18.48;64.69;96325.09;10554424;28;20515;-31
2022/10/15 15:48:58;;;;;;;7.23;2.90;;;;;;;18.57;68.58;96335.22;10548073;28;20158;-32
2022/10/15 15:54:01;;;;;;;10.02;3.80;;;;;;;18.61;68.93;96341.94;10562330;28;20036;-31
2022/10/15 15:59:01;;;;;;;7.47;2.53;;;;;;;18.51;67.21;96331.00;10568414;28;20631;-31
2022/10/15 16:04:02;;;;;;;6.07;2.80;;;;;;;18.54;66.83;96336.06;10557543;28;20036;-31
2022/10/15 16:09:04;;;;;;;13.73;3.97;;;;;;;18.51;66.87;96345.38;10561811;28;20039;-32
2022/10/15 16:14:04;;;;;;;7.43;2.75;;;;;;;18.48;67.42;96342.84;10563147;28;20361;-31
2022/10/15 16:19:05;;;;;;;8.97;2.80;;;;;;;18.48;65.56;96353.84;10561573;28;20068;-32
2022/10/15 16:24:06;;;;;;;7.28;3.22;;;;;;;18.48;64.99;96365.66;10559677;28;20027;-31
2022/10/15 16:29:06;;;;;;;8.80;2.63;;;;;;;18.45;65.92;96373.28;10556600;28;20043;-31
2022/10/15 16:34:07;;;;;;;9.55;2.67;;;;;;;18.53;69.18;96379.16;10557198;28;20032;-31
2022/10/15 16:39:08;;;;;;;5.53;3.13;;;;;;;18.60;69.31;96385.88;10561591;28;20109;-32
2022/10/15 16:44:09;;;;;;;6.15;2.53;;;;;;;18.58;67.78;96392.66;10558109;28;20412;-31
2022/10/15 16:49:09;;;;;;;5.40;2.75;;;;;;;18.53;66.71;96384.22;10553985;28;20035;-31
2022/10/15 16:54:14;;;;;;;6.30;2.27;;;;;;;18.53;66.07;96389.28;10550226;28;20504;-32
2022/10/15 16:59:14;;;;;;;7.50;2.65;;;;;;;18.51;67.30;96398.63;10551559;28;20119;-32
2022/10/15 17:04:15;;;;;;;7.32;2.75;;;;;;;18.48;65.15;96407.06;10559335;28;20095;-30
2022/10/15 17:09:15;;;;;;;5.63;2.70;;;;;;;18.48;65.08;96411.28;10562213;28;20111;-31
2022/10/15 17:14:17;;;;;;;5.93;2.50;;;;;;;18.47;65.60;96412.13;10562006;28;20289;-31
2022/10/15 17:19:20;;;;;;;9.10;3.10;;;;;;;18.53;68.55;96424.78;10562696;28;20024;-31
2022/10/15 17:24:20;;;;;;;8.35;3.00;;;;;;;18.53;69.66;96419.72;10566898;28;20039;-30
2022/10/15 17:29:23;;;;;;;5.38;3.00;;;;;;;18.56;68.03;96422.22;10566297;28;20485;-33
2022/10/15 17:34:24;;;;;;;6.10;2.83;;;;;;;18.54;66.91;96416.31;10562701;28;20028;-32
2022/10/15 17:39:25;;;;;;;4.43;2.13;;;;;;;18.52;67.23;96433.25;10567165;28;20024;-31
2022/10/15 17:44:25;;;;;;;6.87;2.47;;;;;;;18.50;67.48;96429.88;10573418;28;20040;-31
2022/10/15 17:49:25;;;;;;;4.78;2.30;;;;;;;18.48;65.62;96434.94;10561274;28;20305;-31
2022/10/15 17:54:26;;;;;;;5.68;2.60;;;;;;;18.46;66.06;96430.72;10566481;28;20437;-32
2022/10/15 17:59:26;;;;;;;4.23;1.60;;;;;;;18.46;64.78;96418.91;10559665;28;20072;-31
2022/10/15 18:04:28;;;;;;;2.47;2.00;;;;;;;18.48;64.96;96432.41;10570261;28;20032;-31
2022/10/15 18:09:28;;;;;;;5.43;2.88;;;;;;;18.58;68.70;96428.16;10567234;28;20504;-32
2022/10/15 18:14:30;;;;;;;7.80;3.20;;;;;;;18.61;68.87;96423.06;10562130;28;20521;-32
2022/10/15 18:19:31;;;;;;;5.13;2.20;;;;;;;18.55;65.95;96412.94;10566237;28;20119;-31
2022/10/15 18:24:31;;;;;;;3.63;2.30;;;;;;;18.53;65.22;96415.50;10561762;28;20342;-32
2022/10/15 18:29:38;;;;;;;4.32;2.15;;;;;;;18.56;65.08;96409.56;10554867;28;20116;-31
2022/10/15 18:34:39;;;;;;;8.30;2.20;;;;;;;18.54;65.26;96406.19;10561794;28;20440;-31
2022/10/15 18:39:39;;;;;;;6.20;2.43;;;;;;;18.55;64.83;96415.47;10564671;28;20041;-31
2022/10/15 18:44:40;;;;;;;3.78;2.20;;;;;;;18.56;64.77;96429.84;10559216;28;20040;-31
2022/10/15 18:49:42;;;;;;;4.77;1.90;;;;;;;18.56;64.58;96432.38;10555411;28;20088;-32
2022/10/15 18:54:42;;;;;;;4.90;2.25;;;;;;;18.57;65.18;96439.97;10554004;28;20040;-32
2022/10/15 18:59:42;;;;;;;7.73;2.57;;;;;;;18.62;68.62;96458.56;10558761;28;20032;-32
2022/10/15 19:04:43;;;;;;;5.80;2.83;;;;;;;18.62;68.55;96429.81;10558799;28;20451;-33
2022/10/15 19:09:43;;;;;;;4.93;2.10;;;;;;;18.62;65.47;96435.75;10559300;28;20298;-31
2022/10/15 19:14:43;;;;;;;3.77;2.10;;;;;;;18.59;64.60;96435.72;10557717;28;20035;-31
2022/10/15 19:19:48;;;;;;;5.35;2.13;;;;;;;18.59;64.70;96434.91;10560297;28;20558;-31
2022/10/15 19:24:49;;;;;;;4.65;2.05;;;;;;;18.59;64.72;96450.13;10566975;28;20039;-32
2022/10/15 19:29:49;;;;;;;4.83;2.47;;;;;;;18.58;64.61;96453.50;10558522;28;20378;-30
2022/10/15 19:34:49;;;;;;;3.83;2.17;;;;;;;18.55;64.58;96448.44;10559491;28;20035;-31
2022/10/15 19:39:50;;;;;;;4.83;2.43;;;;;;;18.61;68.47;96463.63;10554800;28;20028;-32
2022/10/15 19:44:50;;;;;;;5.65;2.83;;;;;;;18.63;68.89;96459.38;10534754;28;20043;-31
2022/10/15 19:49:51;;;;;;;4.50;2.20;;;;;;;18.61;67.48;96466.16;10552774;28;20031;-31
2022/10/15 19:54:51;;;;;;;6.87;2.63;;;;;;;18.59;65.52;96478.84;10558877;28;20038;-31
2022/10/15 19:59:51;;;;;;;4.23;2.00;;;;;;;18.60;64.80;96482.22;10548526;28;20308;-31
2022/10/15 20:04:52;;;;;;;2.87;2.33;;;;;;;18.48;64.65;96461.97;10558487;28;20464;-32
2022/10/15 20:09:52;;;;;;;3.93;2.40;;;;;;;18.57;64.60;96492.38;10557756;28;20036;-31
2022/10/15 20:14:52;;;;;;;3.57;2.10;;;;;;;18.54;64.62;96480.56;10547229;28;20476;-32
2022/10/15 20:19:53;;;;;;;3.70;1.77;;;;;;;18.56;64.53;96475.47;10557591;28;20038;-32
2022/10/15 20:24:53;;;;;;;3.33;2.37;;;;;;;18.54;64.40;96479.72;10556231;28;20293;-32
2022/10/15 20:29:53;;;;;;;4.33;2.10;;;;;;;18.58;68.38;96477.16;10554415;28;20027;-30
2022/10/15 20:34:54;;;;;;;4.30;2.30;;;;;;;18.61;68.69;96478.84;10557852;28;20027;-31
2022/10/15 20:39:54;;;;;;;2.90;2.20;;;;;;;18.59;67.33;96491.50;10559071;28;20028;-32
2022/10/15 20:44:55;;;;;;;6.27;2.07;;;;;;;18.56;65.40;96483.06;10555751;28;20413;-30
2022/10/15 20:49:55;;;;;;;5.60;2.80;;;;;;;18.56;65.65;96486.47;10551717;28;20060;-31
2022/10/15 20:54:55;;;;;;;4.03;1.95;;;;;;;18.52;64.74;96471.28;10557481;28;20286;-32
2022/10/15 20:59:56;;;;;;;2.47;1.63;;;;;;;18.55;64.71;96494.94;10553796;28;20175;-32
2022/10/15 21:04:56;;;;;;;3.27;1.87;;;;;;;18.54;64.73;96485.63;10557072;28;20398;-31
2022/10/15 21:09:57;;;;;;;3.60;1.90;;;;;;;18.56;67.29;96475.47;10559700;28;20301;-31
2022/10/15 21:14:57;;;;;;;2.60;2.20;;;;;;;18.59;68.59;96485.63;10556116;28;20697;-31
2022/10/15 21:19:59;;;;;;;2.87;2.10;;;;;;;18.59;68.35;96494.03;10557558;28;20036;-32
2022/10/15 21:24:59;;;;;;;4.75;2.08;;;;;;;18.55;66.45;96500.00;10559423;28;20051;-31
2022/10/15 21:29:59;;;;;;;3.73;1.90;;;;;;;18.55;66.05;96501.66;10546287;28;20043;-31
2022/10/15 21:35:02;;;;;;;3.87;1.70;;;;;;;18.55;64.99;96499.13;10559132;28;20045;-32
2022/10/15 21:40:03;;;;;;;3.28;2.00;;;;;;;18.53;64.81;96501.69;10545465;28;20054;-30
2022/10/15 21:45:04;;;;;;;1.73;1.40;;;;;;;18.55;65.05;96511.81;10538145;28;20027;-30
2022/10/15 21:50:05;;;;;;;3.05;1.85;;;;;;;18.53;64.83;96513.50;10552986;28;20031;-31
2022/10/15 21:55:06;;;;;;;5.95;2.97;;;;;;;18.54;64.85;96515.19;10551313;27;20031;-31
2022/10/15 22:00:12;;;;;;;3.17;1.98;;;;;;;18.58;68.89;96509.28;10557071;27;20453;-42
2022/10/15 22:05:15;;;;;;;4.45;1.95;;;;;;;18.61;68.70;96515.19;10566890;28;20035;-30
2022/10/15 22:10:16;;;;;;;4.07;2.05;;;;;;;18.57;67.35;96513.50;10562675;28;20370;-30
2022/10/15 22:15:16;;;;;;;2.70;1.80;;;;;;;18.55;66.35;96529.56;10574936;28;20072;-30
2022/10/15 22:20:17;;;;;;;2.92;1.60;;;;;;;18.54;66.22;96532.94;10564114;28;20288;-30
2022/10/15 22:25:17;;;;;;;2.30;1.50;;;;;;;18.54;65.64;96532.94;10574721;28;20088;-33
2022/10/15 22:30:18;;;;;;;2.60;2.07;;;;;;;18.52;65.34;96527.03;10570865;28;20636;-32
2022/10/15 22:35:18;;;;;;;2.33;1.80;;;;;;;18.52;65.15;96532.13;10568017;28;20389;-30
2022/10/15 22:40:18;;;;;;;3.43;1.33;;;;;;;18.52;64.98;96534.66;10572358;28;20023;-31
2022/10/15 22:45:19;;;;;;;3.20;1.67;;;;;;;18.51;65.46;96533.78;10573065;28;20473;-32
2022/10/15 22:50:19;;;;;;;3.30;1.70;;;;;;;18.55;68.46;96540.56;10570475;28;20035;-31
2022/10/15 22:55:20;;;;;;;3.88;1.77;;;;;;;18.57;69.02;96546.47;10571872;28;20270;-32
2022/10/15 23:00:20;;;;;;;6.57;2.17;;;;;;;18.54;67.47;96541.41;10561692;28;20023;-31
2022/10/15 23:05:20;;;;;;;2.37;1.63;;;;;;;18.53;66.43;96536.34;10565210;28;20096;-31
2022/10/15 23:10:21;;;;;;;1.87;1.60;;;;;;;18.51;66.22;96531.25;10564180;28;20293;-32
2022/10/15 23:15:21;;;;;;;1.92;1.25;;;;;;;18.51;65.32;96522.84;10562505;28;20027;-32
2022/10/15 23:20:22;;;;;;;2.07;1.43;;;;;;;18.52;65.04;96524.50;10563689;28;20024;-31
2022/10/15 23:25:22;;;;;;;2.90;1.33;;;;;;;18.51;65.28;96528.72;10568679;28;20191;-31
2022/10/15 23:30:23;;;;;;;2.37;1.57;;;;;;;18.51;64.90;96517.75;10563478;28;20027;-32